Brown Field Municipal Airport
KSDM : now visible

Airfield :











YOU CAN JOIN US ON...

 
LOGIN :

Register | Disclaimer

   EN    FR    IT 

 









Legend :    VFR   Marginal VFR   IFR   Intensive IFR   Very Intensive IFR
Visi :
Ceiling :
>= 8 km
>= 3000ft
5 to 8 km
1000 to 3000 ft
1500m to 5 km
500 to 1000 ft
800 to 1500m
200 to 500 ft
< 800m
< 200 ft
Symbols :   Thunderstorms  Fog  Heavy snow  Heavy precipitations  Wind > 20 kt






- Airport Elevation : 526 ft


KSDM - Brown Field Municipal

CURRENT METAR :
  • 150653Z AUTO 24003KT 10SM FEW021 SCT029 BKN036 13/09 A2997 RMK AO2 SLP146 T01330094

EXPIRED METARs :
  • 150634Z AUTO 24005KT 10SM SCT021 BKN036 13/10 A2996 RMK AO2 T01330100
  • 150553Z AUTO 25005KT 10SM BKN021 OVC028 14/10 A2996 RMK AO2 SLP143 60000 T01390100 10161 20139 51008
  • 150453Z AUTO 27007KT 10SM OVC017 14/11 A2995 RMK AO2 RAB0357E07 SLP141 P0000 T01390106
  • 150422Z AUTO 28007KT 10SM BKN015 OVC036 14/11 A2995 RMK AO2 RAB0357E07 P0000 T01440111

TAF N/A



MET'MAP, your aeronautical weather chart ! - Copyright ORBIFLY December 2007 - Disclaimer

ORBIFLY MET'MAP TEAM :

Programming & Development : Alexandra Zaïnal
Concept & original design : Baudouin d'Aumeries
Assistance for programming : Marc-Olivier Méhu
Technical & hardware support : Manuel Goepfert

Contact : metmap@orbifly.com




SOURCES & CREDITS :

   NOAA       Earth
Advisory